createdAt,value
2018-07-05T00:00:30.828Z,0
2018-07-05T00:01:36.242Z,0
2018-07-05T00:02:41.646Z,0
2018-07-05T00:03:47.052Z,0
2018-07-05T00:04:52.458Z,0
2018-07-05T00:05:57.875Z,0
2018-07-05T00:07:03.301Z,0
2018-07-05T00:08:08.705Z,0
2018-07-05T00:09:14.109Z,0
2018-07-05T00:10:19.515Z,0
2018-07-05T00:11:24.931Z,0
2018-07-05T00:12:30.336Z,0
2018-07-05T00:13:35.741Z,0
2018-07-05T00:14:41.144Z,0
2018-07-05T00:15:46.546Z,0
2018-07-05T00:16:51.961Z,0
2018-07-05T00:17:57.362Z,0
2018-07-05T00:19:02.766Z,0
2018-07-05T00:20:08.172Z,0
2018-07-05T00:21:14.579Z,0
2018-07-05T00:22:19.979Z,0
2018-07-05T00:23:25.381Z,0
2018-07-05T00:24:30.788Z,0
2018-07-05T00:25:36.200Z,0
2018-07-05T00:26:41.619Z,0
2018-07-05T00:27:47.030Z,0
2018-07-05T00:28:52.429Z,0
2018-07-05T00:29:57.832Z,0
2018-07-05T00:31:03.238Z,0
2018-07-05T00:32:08.656Z,0
2018-07-05T00:33:15.051Z,0
2018-07-05T00:34:20.478Z,0
2018-07-05T00:35:25.863Z,0
2018-07-05T00:36:31.276Z,0
2018-07-05T00:37:36.682Z,0
2018-07-05T00:38:42.084Z,0
2018-07-05T00:39:47.492Z,0
2018-07-05T00:40:52.905Z,0
2018-07-05T00:41:58.317Z,0
2018-07-05T00:43:03.724Z,0
2018-07-05T00:44:09.137Z,0
2018-07-05T00:45:14.545Z,0
2018-07-05T00:46:19.947Z,0
2018-07-05T00:47:25.357Z,0
2018-07-05T00:48:30.761Z,0
2018-07-05T00:49:36.166Z,0
2018-07-05T00:50:41.571Z,0
2018-07-05T00:51:46.988Z,0
2018-07-05T00:52:52.392Z,0
2018-07-05T00:53:57.795Z,0
2018-07-05T00:55:03.238Z,0
2018-07-05T00:56:08.603Z,0
2018-07-05T00:57:14.017Z,0
2018-07-05T00:58:19.425Z,0
2018-07-05T00:59:24.829Z,0
2018-07-05T01:00:30.238Z,0
2018-07-05T01:01:35.642Z,0
2018-07-05T01:02:41.059Z,0
2018-07-05T01:03:46.464Z,0
2018-07-05T01:04:51.871Z,0
2018-07-05T01:05:57.277Z,0
2018-07-05T01:07:02.691Z,0
2018-07-05T01:08:08.094Z,0
2018-07-05T01:09:13.497Z,0
2018-07-05T01:10:18.900Z,0
2018-07-05T01:11:24.303Z,0
2018-07-05T01:12:29.767Z,0
2018-07-05T01:13:35.121Z,0
2018-07-05T01:14:40.524Z,0
2018-07-05T01:15:45.925Z,0
2018-07-05T01:16:51.330Z,0
2018-07-05T01:17:56.744Z,0
2018-07-05T01:19:02.147Z,0
2018-07-05T01:20:07.552Z,0
2018-07-05T01:21:12.958Z,0
2018-07-05T01:22:18.376Z,0
2018-07-05T01:23:23.782Z,0
2018-07-05T01:24:29.184Z,0
2018-07-05T01:25:34.584Z,0
2018-07-05T01:26:39.991Z,0
2018-07-05T01:27:45.399Z,0
2018-07-05T01:28:50.803Z,0
2018-07-05T01:29:56.206Z,0
2018-07-05T01:31:01.613Z,0
2018-07-05T01:32:07.020Z,0
2018-07-05T01:33:12.435Z,0
2018-07-05T01:34:17.840Z,0
2018-07-05T01:35:23.245Z,0
2018-07-05T01:36:28.648Z,0
2018-07-05T01:37:34.063Z,0
2018-07-05T01:38:39.465Z,0
2018-07-05T01:39:44.869Z,0
2018-07-05T01:40:50.273Z,0
2018-07-05T01:41:56.672Z,0
2018-07-05T01:43:02.082Z,0
2018-07-05T01:44:07.488Z,0
2018-07-05T01:45:12.892Z,0
2018-07-05T01:46:18.296Z,0
2018-07-05T01:47:23.706Z,0
2018-07-05T01:48:29.122Z,0
2018-07-05T01:49:34.529Z,0
2018-07-05T01:50:39.938Z,0
2018-07-05T01:51:45.340Z,0
2018-07-05T01:52:50.756Z,0
2018-07-05T01:53:56.158Z,0
2018-07-05T01:55:01.564Z,0
2018-07-05T01:56:06.973Z,0
2018-07-05T01:57:12.378Z,0
2018-07-05T01:58:17.789Z,0
2018-07-05T01:59:23.194Z,0
2018-07-05T02:00:28.599Z,0
2018-07-05T02:01:34.003Z,0
2018-07-05T02:02:39.427Z,0
2018-07-05T02:03:44.835Z,0
2018-07-05T02:04:50.236Z,0
2018-07-05T02:05:55.639Z,0
2018-07-05T02:07:01.042Z,0
2018-07-05T02:08:06.456Z,0
2018-07-05T02:09:11.859Z,0
2018-07-05T02:10:18.252Z,0
2018-07-05T02:11:23.659Z,0
2018-07-05T02:12:29.056Z,0
2018-07-05T02:13:34.483Z,0
2018-07-05T02:14:39.883Z,0
2018-07-05T02:15:45.290Z,0
2018-07-05T02:16:50.703Z,0
2018-07-05T02:17:56.116Z,0
2018-07-05T02:19:01.523Z,0
2018-07-05T02:20:06.927Z,0
2018-07-05T02:21:12.347Z,0
2018-07-05T02:22:17.744Z,0
2018-07-05T02:23:23.156Z,0
2018-07-05T02:24:28.561Z,0
2018-07-05T02:25:33.967Z,0
2018-07-05T02:26:39.377Z,0
2018-07-05T02:27:44.781Z,0
2018-07-05T02:28:50.195Z,0
2018-07-05T02:29:55.652Z,0
2018-07-05T02:31:01.005Z,0
2018-07-05T02:32:06.408Z,0
2018-07-05T02:33:11.811Z,0
2018-07-05T02:34:17.225Z,0
2018-07-05T02:35:22.633Z,0
2018-07-05T02:36:28.035Z,0
2018-07-05T02:37:33.440Z,0
2018-07-05T02:38:38.858Z,0
2018-07-05T02:39:44.261Z,0
2018-07-05T02:40:49.662Z,0
2018-07-05T02:41:55.065Z,0
2018-07-05T02:43:00.474Z,0
2018-07-05T02:44:05.886Z,0
2018-07-05T02:45:11.293Z,0
2018-07-05T02:46:16.690Z,0
2018-07-05T02:47:22.094Z,0
2018-07-05T02:48:27.499Z,0
2018-07-05T02:49:32.916Z,0
2018-07-05T02:50:38.317Z,0
2018-07-05T02:51:43.720Z,0
2018-07-05T02:52:49.125Z,0
2018-07-05T02:53:54.541Z,0
2018-07-05T02:54:59.947Z,0
2018-07-05T02:56:05.352Z,0
2018-07-05T02:57:10.762Z,0
2018-07-05T02:58:16.167Z,0
2018-07-05T02:59:22.577Z,0
2018-07-05T03:00:27.981Z,0
2018-07-05T03:01:33.382Z,0
2018-07-05T03:02:38.786Z,0
2018-07-05T03:03:44.196Z,0
2018-07-05T03:04:49.655Z,0
2018-07-05T03:05:55.031Z,0
2018-07-05T03:07:00.434Z,0
2018-07-05T03:08:05.840Z,0
2018-07-05T03:09:11.251Z,0
2018-07-05T03:10:16.658Z,0
2018-07-05T03:11:23.057Z,0
2018-07-05T03:12:28.467Z,0
2018-07-05T03:13:33.875Z,0
2018-07-05T03:14:39.284Z,0
2018-07-05T03:15:44.691Z,0
2018-07-05T03:16:50.103Z,0
2018-07-05T03:17:55.509Z,0
2018-07-05T03:19:00.916Z,0
2018-07-05T03:20:06.327Z,0
2018-07-05T03:21:11.746Z,0
2018-07-05T03:22:17.144Z,0
2018-07-05T03:23:22.542Z,0
2018-07-05T03:24:27.958Z,0
2018-07-05T03:25:33.370Z,0
2018-07-05T03:26:38.776Z,0
2018-07-05T03:27:44.189Z,0
2018-07-05T03:28:49.598Z,0
2018-07-05T03:29:55.011Z,0
2018-07-05T03:31:00.414Z,0
2018-07-05T03:32:05.823Z,0
2018-07-05T03:33:11.226Z,0
2018-07-05T03:34:16.666Z,0
2018-07-05T03:35:22.077Z,0
2018-07-05T03:36:27.478Z,0
2018-07-05T03:37:32.886Z,0
2018-07-05T03:38:38.290Z,0
2018-07-05T03:39:43.709Z,5.625
2018-07-05T03:40:49.114Z,5.625
2018-07-05T03:41:54.520Z,5.625
2018-07-05T03:42:59.928Z,5.625
2018-07-05T03:44:05.329Z,5.625
2018-07-05T03:45:10.742Z,5.625
2018-07-05T03:46:16.150Z,5.625
2018-07-05T03:47:21.553Z,5.625
2018-07-05T03:48:26.955Z,5.625
2018-07-05T03:49:33.352Z,5.625
2018-07-05T03:50:38.768Z,5.625
2018-07-05T03:51:44.174Z,5.625
2018-07-05T03:52:49.573Z,5.625
2018-07-05T03:53:54.977Z,5.625
2018-07-05T03:55:00.381Z,5.625
2018-07-05T03:56:05.795Z,5.625
2018-07-05T03:57:11.204Z,5.625
2018-07-05T03:58:16.608Z,5.625
2018-07-05T03:59:22.011Z,5.625
2018-07-05T04:00:27.428Z,5.625
2018-07-05T04:01:32.836Z,5.625
2018-07-05T04:02:38.253Z,5.625
2018-07-05T04:03:43.644Z,5.625
2018-07-05T04:04:49.047Z,5.625
2018-07-05T04:05:54.462Z,5.625
2018-07-05T04:06:59.865Z,5.625
2018-07-05T04:08:05.275Z,5.625
2018-07-05T04:09:10.676Z,11.25
2018-07-05T04:10:16.082Z,11.25
2018-07-05T04:11:21.519Z,11.25
2018-07-05T04:12:26.937Z,11.25
2018-07-05T04:13:32.322Z,11.25
2018-07-05T04:14:37.729Z,11.25
2018-07-05T04:15:43.192Z,11.25
2018-07-05T04:16:48.578Z,11.25
2018-07-05T04:17:53.982Z,11.25
2018-07-05T04:18:59.395Z,11.25
2018-07-05T04:20:04.806Z,11.25
2018-07-05T04:21:10.220Z,11.25
2018-07-05T04:22:15.626Z,11.25
2018-07-05T04:23:21.032Z,11.25
2018-07-05T04:24:26.446Z,11.25
2018-07-05T04:25:31.847Z,11.25
2018-07-05T04:26:37.261Z,11.25
2018-07-05T04:27:42.667Z,11.25
2018-07-05T04:28:48.078Z,16.875
2018-07-05T04:29:53.484Z,16.875
2018-07-05T04:30:58.888Z,16.875
2018-07-05T04:32:04.302Z,16.875
2018-07-05T04:33:09.705Z,16.875
2018-07-05T04:34:15.155Z,16.875
2018-07-05T04:35:20.513Z,16.875
2018-07-05T04:36:25.928Z,16.875
2018-07-05T04:37:31.330Z,16.875
2018-07-05T04:38:36.732Z,16.875
2018-07-05T04:39:42.139Z,16.875
2018-07-05T04:40:47.545Z,16.875
2018-07-05T04:41:53.955Z,16.875
2018-07-05T04:42:59.360Z,16.875
2018-07-05T04:44:04.763Z,16.875
2018-07-05T04:45:10.173Z,16.875
2018-07-05T04:46:15.577Z,16.875
2018-07-05T04:47:20.996Z,16.875
2018-07-05T04:48:26.400Z,16.875
2018-07-05T04:49:31.805Z,16.875
2018-07-05T04:50:37.211Z,16.875
2018-07-05T04:51:42.629Z,16.875
2018-07-05T04:52:49.027Z,16.875
2018-07-05T04:53:54.439Z,16.875
2018-07-05T04:54:59.845Z,16.875
2018-07-05T04:56:05.240Z,16.875
2018-07-05T04:57:10.653Z,22.5
2018-07-05T04:58:16.062Z,22.5
2018-07-05T04:59:21.470Z,22.5
2018-07-05T05:00:26.871Z,22.5
2018-07-05T05:01:32.274Z,22.5
2018-07-05T05:02:37.687Z,22.5
2018-07-05T05:03:43.092Z,22.5
2018-07-05T05:04:48.512Z,22.5
2018-07-05T05:05:53.926Z,22.5
2018-07-05T05:06:59.316Z,22.5
2018-07-05T05:08:04.729Z,22.5
2018-07-05T05:09:10.159Z,22.5
2018-07-05T05:10:15.567Z,22.5
2018-07-05T05:11:20.976Z,22.5
2018-07-05T05:12:26.398Z,22.5
2018-07-05T05:13:31.812Z,22.5
2018-07-05T05:14:37.214Z,22.5
2018-07-05T05:15:42.622Z,22.5
2018-07-05T05:16:48.028Z,22.5
2018-07-05T05:17:53.444Z,28.125
2018-07-05T05:18:58.967Z,28.125
2018-07-05T05:20:04.257Z,28.125
2018-07-05T05:21:09.663Z,28.125
2018-07-05T05:22:15.076Z,28.125
2018-07-05T05:23:20.494Z,28.125
2018-07-05T05:24:25.904Z,28.125
2018-07-05T05:25:31.313Z,28.125
2018-07-05T05:26:36.747Z,28.125
2018-07-05T05:27:42.149Z,28.125
2018-07-05T05:28:47.567Z,28.125
2018-07-05T05:29:53.970Z,28.125
2018-07-05T05:30:59.368Z,28.125
2018-07-05T05:32:04.772Z,28.125
2018-07-05T05:33:11.185Z,28.125
2018-07-05T05:34:16.592Z,28.125
2018-07-05T05:35:21.996Z,28.125
2018-07-05T05:36:27.397Z,28.125
2018-07-05T05:37:32.799Z,28.125
2018-07-05T05:38:38.216Z,28.125
2018-07-05T05:39:43.621Z,28.125
2018-07-05T05:40:49.028Z,28.125
2018-07-05T05:41:54.430Z,28.125
2018-07-05T05:43:00.826Z,28.125
2018-07-05T05:44:06.255Z,28.125
2018-07-05T05:45:11.665Z,28.125
2018-07-05T05:46:17.073Z,28.125
2018-07-05T05:47:22.477Z,28.125
2018-07-05T05:48:27.889Z,28.125
2018-07-05T05:49:33.311Z,28.125
2018-07-05T05:50:38.722Z,28.125
2018-07-05T05:51:44.129Z,28.125
2018-07-05T05:52:49.541Z,28.125
2018-07-05T05:53:54.951Z,28.125
2018-07-05T05:55:00.358Z,28.125
2018-07-05T05:56:05.762Z,28.125
2018-07-05T05:57:12.159Z,28.125
2018-07-05T05:58:17.566Z,28.125
2018-07-05T05:59:22.985Z,28.125
2018-07-05T06:00:28.398Z,28.125
2018-07-05T06:01:33.801Z,28.125
2018-07-05T06:02:39.203Z,28.125
2018-07-05T06:03:44.604Z,28.125
2018-07-05T06:04:50.020Z,28.125
2018-07-05T06:05:55.432Z,28.125
2018-07-05T06:07:00.836Z,28.125
2018-07-05T06:08:06.307Z,28.125
2018-07-05T06:09:11.653Z,28.125
2018-07-05T06:10:17.064Z,28.125
2018-07-05T06:11:22.482Z,28.125
2018-07-05T06:12:27.891Z,28.125
2018-07-05T06:13:33.294Z,28.125
2018-07-05T06:14:38.721Z,28.125
2018-07-05T06:15:44.128Z,28.125
2018-07-05T06:16:49.606Z,28.125
2018-07-05T06:17:54.935Z,28.125
2018-07-05T06:19:00.343Z,28.125
2018-07-05T06:20:05.758Z,28.125
2018-07-05T06:21:11.162Z,28.125
2018-07-05T06:22:16.565Z,28.125
2018-07-05T06:23:21.977Z,28.125
2018-07-05T06:24:27.383Z,28.125
2018-07-05T06:25:32.812Z,28.125
2018-07-05T06:26:38.207Z,28.125
2018-07-05T06:27:43.609Z,28.125
2018-07-05T06:28:49.013Z,28.125
2018-07-05T06:29:54.427Z,28.125
2018-07-05T06:30:59.833Z,28.125
2018-07-05T06:32:05.243Z,28.125
2018-07-05T06:33:10.648Z,28.125
2018-07-05T06:34:16.120Z,28.125
2018-07-05T06:35:21.472Z,28.125
2018-07-05T06:36:26.879Z,28.125
2018-07-05T06:37:32.281Z,28.125
2018-07-05T06:38:37.686Z,33.75
2018-07-05T06:39:43.089Z,33.75
2018-07-05T06:40:48.500Z,33.75
2018-07-05T06:41:53.909Z,33.75
2018-07-05T06:42:59.329Z,33.75
2018-07-05T06:44:04.716Z,33.75
2018-07-05T06:45:10.132Z,33.75
2018-07-05T06:46:15.534Z,33.75
2018-07-05T06:47:20.991Z,33.75
2018-07-05T06:48:26.344Z,33.75
2018-07-05T06:49:31.754Z,33.75
2018-07-05T06:50:37.161Z,33.75
2018-07-05T06:51:42.566Z,33.75
2018-07-05T06:52:47.977Z,33.75
2018-07-05T06:53:53.383Z,33.75
2018-07-05T06:54:58.789Z,33.75
2018-07-05T06:56:04.205Z,33.75
2018-07-05T06:57:09.622Z,33.75
2018-07-05T06:58:15.030Z,33.75
2018-07-05T06:59:20.432Z,33.75
2018-07-05T07:00:25.848Z,33.75
2018-07-05T07:01:31.253Z,33.75
2018-07-05T07:02:36.664Z,33.75
2018-07-05T07:03:42.065Z,33.75
2018-07-05T07:04:48.460Z,33.75
2018-07-05T07:05:53.880Z,33.75
2018-07-05T07:06:59.285Z,33.75
2018-07-05T07:08:04.734Z,33.75
2018-07-05T07:09:10.090Z,33.75
2018-07-05T07:10:15.495Z,33.75
2018-07-05T07:11:20.907Z,33.75
2018-07-05T07:12:26.326Z,33.75
2018-07-05T07:13:31.727Z,33.75
2018-07-05T07:14:37.133Z,33.75
2018-07-05T07:15:42.549Z,33.75
2018-07-05T07:16:47.960Z,33.75
2018-07-05T07:17:53.364Z,33.75
2018-07-05T07:18:58.766Z,33.75
2018-07-05T07:20:05.158Z,33.75
2018-07-05T07:21:10.573Z,33.75
2018-07-05T07:22:15.977Z,33.75
2018-07-05T07:23:21.388Z,33.75
2018-07-05T07:24:26.794Z,33.75
2018-07-05T07:25:32.208Z,33.75
2018-07-05T07:26:37.619Z,33.75
2018-07-05T07:27:43.027Z,33.75
2018-07-05T07:28:48.432Z,33.75
2018-07-05T07:29:53.853Z,33.75
2018-07-05T07:30:59.252Z,33.75
2018-07-05T07:32:06.648Z,33.75
2018-07-05T07:33:12.051Z,33.75
2018-07-05T07:34:17.455Z,33.75
2018-07-05T07:35:22.859Z,33.75
2018-07-05T07:36:28.277Z,33.75
2018-07-05T07:37:34.002Z,33.75
2018-07-05T07:38:40.351Z,33.75
2018-07-05T07:39:45.757Z,33.75
2018-07-05T07:40:51.161Z,33.75
2018-07-05T07:41:56.579Z,33.75
2018-07-05T07:43:01.982Z,33.75
2018-07-05T07:44:07.392Z,39.375
2018-07-05T07:45:12.798Z,39.375
2018-07-05T07:46:18.214Z,39.375
2018-07-05T07:47:23.619Z,39.375
2018-07-05T07:48:29.027Z,39.375
2018-07-05T07:49:34.432Z,39.375
2018-07-05T07:50:39.835Z,39.375
2018-07-05T07:51:45.251Z,39.375
2018-07-05T07:52:50.657Z,39.375
2018-07-05T07:53:56.067Z,39.375
2018-07-05T07:55:01.474Z,39.375
2018-07-05T07:56:06.886Z,39.375
2018-07-05T07:57:12.303Z,39.375
2018-07-05T07:58:17.739Z,39.375
2018-07-05T07:59:23.119Z,39.375
2018-07-05T08:00:28.523Z,39.375
2018-07-05T08:01:33.951Z,39.375
2018-07-05T08:02:39.356Z,39.375
2018-07-05T08:03:44.763Z,39.375
2018-07-05T08:04:50.165Z,39.375
2018-07-05T08:05:55.576Z,39.375
2018-07-05T08:07:00.996Z,39.375
2018-07-05T08:08:06.461Z,39.375
2018-07-05T08:09:11.814Z,39.375
2018-07-05T08:10:17.223Z,39.375
2018-07-05T08:11:22.632Z,39.375
2018-07-05T08:12:29.036Z,39.375
2018-07-05T08:13:34.436Z,39.375
2018-07-05T08:14:39.847Z,39.375
2018-07-05T08:15:45.253Z,39.375
2018-07-05T08:16:50.684Z,39.375
2018-07-05T08:17:56.097Z,39.375
2018-07-05T08:19:01.516Z,39.375
2018-07-05T08:20:06.924Z,39.375
2018-07-05T08:21:12.330Z,39.375
2018-07-05T08:22:17.751Z,39.375
2018-07-05T08:23:23.150Z,39.375
2018-07-05T08:24:29.543Z,39.375
2018-07-05T08:25:34.946Z,45
2018-07-05T08:26:40.351Z,45
2018-07-05T08:27:45.767Z,45
2018-07-05T08:28:51.171Z,45
2018-07-05T08:29:56.577Z,45
2018-07-05T08:31:01.982Z,50.625
2018-07-05T08:32:07.393Z,50.625
2018-07-05T08:33:12.798Z,50.625
2018-07-05T08:34:18.201Z,50.625
2018-07-05T08:35:23.619Z,50.625
2018-07-05T08:36:29.021Z,56.25
2018-07-05T08:37:34.442Z,56.25
2018-07-05T08:38:39.847Z,56.25
2018-07-05T08:39:45.251Z,56.25
2018-07-05T08:40:50.671Z,56.25
2018-07-05T08:41:56.075Z,56.25
2018-07-05T08:43:01.489Z,56.25
2018-07-05T08:44:06.911Z,56.25
2018-07-05T08:45:12.318Z,56.25
2018-07-05T08:46:17.724Z,56.25
2018-07-05T08:47:23.152Z,56.25
2018-07-05T08:48:28.559Z,56.25
2018-07-05T08:49:33.971Z,56.25
2018-07-05T08:50:39.373Z,50.625
2018-07-05T08:51:44.786Z,56.25
2018-07-05T08:52:50.205Z,56.25
2018-07-05T08:53:55.612Z,56.25
2018-07-05T08:55:01.024Z,50.625
2018-07-05T08:56:06.428Z,50.625
2018-07-05T08:57:11.830Z,50.625
2018-07-05T08:58:18.290Z,50.625
2018-07-05T08:59:24.639Z,50.625
2018-07-05T09:00:30.057Z,50.625
2018-07-05T09:01:36.449Z,50.625
2018-07-05T09:02:41.864Z,50.625
2018-07-05T09:03:47.271Z,50.625
2018-07-05T09:04:52.694Z,50.625
2018-07-05T09:05:58.081Z,50.625
2018-07-05T09:07:03.488Z,50.625
2018-07-05T09:08:08.910Z,50.625
2018-07-05T09:09:14.316Z,50.625
2018-07-05T09:10:19.739Z,50.625
2018-07-05T09:11:25.129Z,50.625
2018-07-05T09:12:30.534Z,50.625
2018-07-05T09:13:35.949Z,50.625
2018-07-05T09:14:41.352Z,56.25
2018-07-05T09:15:46.762Z,56.25
2018-07-05T09:16:52.170Z,56.25
2018-07-05T09:17:57.804Z,56.25
2018-07-05T09:19:02.995Z,56.25
2018-07-05T09:20:08.406Z,56.25
2018-07-05T09:21:13.814Z,56.25
2018-07-05T09:22:19.230Z,50.625
2018-07-05T09:23:24.765Z,50.625
2018-07-05T09:24:30.100Z,56.25
2018-07-05T09:25:35.510Z,56.25
2018-07-05T09:26:40.978Z,56.25
2018-07-05T09:27:46.344Z,56.25
2018-07-05T09:28:51.749Z,56.25
2018-07-05T09:29:57.184Z,56.25
2018-07-05T09:31:03.581Z,56.25
2018-07-05T09:32:08.962Z,56.25
2018-07-05T09:33:14.384Z,56.25
2018-07-05T09:34:19.792Z,56.25
2018-07-05T09:35:25.204Z,56.25
2018-07-05T09:36:30.610Z,56.25
2018-07-05T09:37:36.107Z,56.25
2018-07-05T09:38:41.499Z,56.25
2018-07-05T09:39:46.911Z,56.25
2018-07-05T09:40:52.313Z,56.25
2018-07-05T09:41:57.719Z,56.25
2018-07-05T09:43:03.137Z,56.25
2018-07-05T09:44:08.548Z,56.25
2018-07-05T09:45:13.952Z,56.25
2018-07-05T09:46:20.341Z,56.25
2018-07-05T09:47:25.749Z,56.25
2018-07-05T09:48:31.166Z,56.25
2018-07-05T09:49:36.573Z,56.25
2018-07-05T09:50:42.971Z,56.25
2018-07-05T09:51:49.373Z,56.25
2018-07-05T09:52:54.785Z,56.25
2018-07-05T09:54:00.202Z,56.25
2018-07-05T09:55:07.599Z,56.25
2018-07-05T09:56:13.003Z,56.25
2018-07-05T09:57:18.407Z,61.875
2018-07-05T09:58:23.827Z,56.25
2018-07-05T09:59:29.235Z,56.25
2018-07-05T10:00:34.642Z,56.25
2018-07-05T10:01:40.051Z,56.25
2018-07-05T10:02:45.460Z,56.25
2018-07-05T10:03:50.957Z,56.25
2018-07-05T10:04:56.282Z,56.25
2018-07-05T10:06:01.690Z,56.25
2018-07-05T10:07:07.103Z,56.25
2018-07-05T10:08:13.556Z,56.25
2018-07-05T10:09:18.920Z,56.25
2018-07-05T10:10:24.325Z,56.25
2018-07-05T10:11:29.737Z,61.875
2018-07-05T10:12:35.152Z,56.25
2018-07-05T10:13:40.817Z,56.25
2018-07-05T10:14:45.984Z,61.875
2018-07-05T10:15:52.378Z,61.875
2018-07-05T10:16:57.787Z,61.875
2018-07-05T10:18:03.192Z,61.875
2018-07-05T10:19:08.645Z,56.25
2018-07-05T10:20:14.011Z,56.25
2018-07-05T10:21:19.417Z,56.25
2018-07-05T10:22:24.834Z,56.25
2018-07-05T10:23:30.247Z,56.25
2018-07-05T10:24:35.653Z,56.25
2018-07-05T10:25:41.061Z,56.25
2018-07-05T10:26:48.449Z,56.25
2018-07-05T10:27:53.856Z,61.875
2018-07-05T10:28:59.269Z,56.25
2018-07-05T10:30:04.675Z,56.25
2018-07-05T10:31:10.080Z,61.875
2018-07-05T10:32:15.481Z,61.875
2018-07-05T10:33:20.903Z,61.875
2018-07-05T10:34:26.309Z,61.875
2018-07-05T10:35:31.714Z,61.875
2018-07-05T10:36:37.124Z,61.875
2018-07-05T10:37:42.685Z,61.875
2018-07-05T10:38:48.109Z,61.875
2018-07-05T10:39:53.524Z,61.875
2018-07-05T10:40:58.922Z,61.875
2018-07-05T10:42:04.331Z,61.875
2018-07-05T10:43:09.740Z,61.875
2018-07-05T10:44:15.160Z,61.875
2018-07-05T10:45:20.571Z,61.875
2018-07-05T10:46:25.978Z,61.875
2018-07-05T10:47:31.416Z,61.875
2018-07-05T10:48:36.850Z,61.875
2018-07-05T10:49:42.257Z,61.875
2018-07-05T10:50:47.666Z,61.875
2018-07-05T10:51:53.076Z,61.875
2018-07-05T10:52:58.488Z,61.875
2018-07-05T10:54:03.904Z,61.875
2018-07-05T10:55:09.314Z,61.875
2018-07-05T10:56:14.720Z,67.5
2018-07-05T10:57:20.123Z,67.5
2018-07-05T10:58:25.533Z,67.5
2018-07-05T10:59:30.951Z,73.125
2018-07-05T11:00:36.355Z,67.5
2018-07-05T11:01:42.750Z,67.5
2018-07-05T11:02:48.156Z,67.5
2018-07-05T11:03:53.586Z,67.5
2018-07-05T11:04:58.989Z,61.875
2018-07-05T11:06:04.396Z,61.875
2018-07-05T11:07:09.805Z,67.5
2018-07-05T11:08:15.211Z,73.125
2018-07-05T11:09:20.638Z,67.5
2018-07-05T11:10:26.047Z,73.125
2018-07-05T11:11:31.451Z,67.5
2018-07-05T11:12:36.857Z,67.5
2018-07-05T11:13:42.264Z,67.5
2018-07-05T11:14:48.743Z,67.5
2018-07-05T11:15:54.081Z,67.5
2018-07-05T11:16:59.495Z,67.5
2018-07-05T11:18:04.901Z,67.5
2018-07-05T11:19:10.335Z,67.5
2018-07-05T11:20:16.732Z,67.5
2018-07-05T11:21:22.141Z,67.5
2018-07-05T11:22:27.558Z,67.5
2018-07-05T11:23:32.964Z,67.5
2018-07-05T11:24:38.381Z,67.5
2018-07-05T11:25:43.788Z,67.5
2018-07-05T11:26:49.191Z,67.5
2018-07-05T11:27:54.604Z,67.5
2018-07-05T11:29:00.026Z,67.5
2018-07-05T11:30:05.489Z,67.5
2018-07-05T11:31:10.840Z,67.5
2018-07-05T11:32:16.246Z,67.5
2018-07-05T11:33:21.655Z,67.5
2018-07-05T11:34:27.071Z,67.5
2018-07-05T11:35:32.524Z,67.5
2018-07-05T11:36:37.925Z,67.5
2018-07-05T11:37:43.332Z,67.5
2018-07-05T11:38:48.741Z,67.5
2018-07-05T11:39:54.160Z,73.125
2018-07-05T11:40:59.570Z,73.125
2018-07-05T11:42:04.983Z,73.125
2018-07-05T11:43:10.392Z,73.125
2018-07-05T11:44:15.807Z,73.125
2018-07-05T11:45:21.221Z,73.125
2018-07-05T11:46:26.626Z,78.75
2018-07-05T11:47:32.034Z,78.75
2018-07-05T11:48:37.436Z,78.75
2018-07-05T11:49:42.839Z,73.125
2018-07-05T11:50:48.254Z,73.125
2018-07-05T11:51:53.690Z,73.125
2018-07-05T11:52:59.107Z,73.125
2018-07-05T11:54:04.524Z,73.125
2018-07-05T11:55:09.951Z,73.125
2018-07-05T11:56:15.363Z,73.125
2018-07-05T11:57:20.773Z,73.125
2018-07-05T11:58:26.178Z,73.125
2018-07-05T11:59:31.590Z,73.125
2018-07-05T12:00:37.013Z,67.5
2018-07-05T12:01:42.421Z,67.5
2018-07-05T12:02:47.848Z,67.5
2018-07-05T12:03:53.235Z,67.5
2018-07-05T12:04:58.638Z,67.5
2018-07-05T12:06:04.061Z,67.5
2018-07-05T12:07:09.461Z,67.5
2018-07-05T12:08:14.878Z,67.5
2018-07-05T12:09:20.280Z,73.125
2018-07-05T12:10:25.745Z,73.125
2018-07-05T12:11:31.147Z,73.125
2018-07-05T12:12:36.562Z,73.125
2018-07-05T12:13:41.974Z,73.125
2018-07-05T12:14:47.381Z,78.75
2018-07-05T12:15:52.825Z,73.125
2018-07-05T12:16:59.223Z,73.125
2018-07-05T12:18:04.630Z,73.125
2018-07-05T12:19:10.041Z,73.125
2018-07-05T12:20:16.434Z,73.125
2018-07-05T12:21:21.855Z,73.125
2018-07-05T12:22:27.268Z,73.125
2018-07-05T12:23:32.670Z,73.125
2018-07-05T12:24:38.077Z,73.125
2018-07-05T12:25:43.502Z,73.125
2018-07-05T12:26:48.911Z,73.125
2018-07-05T12:27:54.318Z,73.125
2018-07-05T12:28:59.761Z,73.125
2018-07-05T12:30:05.134Z,73.125
2018-07-05T12:31:10.570Z,67.5
2018-07-05T12:32:15.970Z,73.125
2018-07-05T12:33:22.370Z,73.125
2018-07-05T12:34:27.791Z,73.125
2018-07-05T12:35:34.180Z,73.125
2018-07-05T12:36:39.600Z,73.125
2018-07-05T12:37:45.060Z,73.125
2018-07-05T12:38:50.416Z,73.125
2018-07-05T12:39:55.822Z,73.125
2018-07-05T12:41:01.232Z,73.125
2018-07-05T12:42:06.650Z,73.125
2018-07-05T12:43:12.060Z,73.125
2018-07-05T12:44:17.465Z,73.125
2018-07-05T12:45:22.873Z,78.75
2018-07-05T12:46:28.299Z,78.75
2018-07-05T12:47:33.702Z,78.75
2018-07-05T12:48:39.111Z,78.75
2018-07-05T12:49:45.508Z,78.75
2018-07-05T12:50:50.910Z,78.75
2018-07-05T12:51:56.359Z,78.75
2018-07-05T12:53:01.730Z,78.75
2018-07-05T12:54:07.140Z,78.75
2018-07-05T12:55:12.548Z,78.75
2018-07-05T12:56:17.951Z,78.75
2018-07-05T12:57:23.367Z,78.75
2018-07-05T12:58:28.773Z,84.375
2018-07-05T12:59:34.183Z,84.375
2018-07-05T13:00:39.578Z,78.75
2018-07-05T13:01:45.994Z,78.75
2018-07-05T13:02:51.404Z,78.75
2018-07-05T13:03:56.861Z,84.375
2018-07-05T13:05:02.217Z,84.375
2018-07-05T13:06:07.622Z,78.75
2018-07-05T13:07:13.039Z,78.75
2018-07-05T13:08:18.437Z,78.75
2018-07-05T13:09:23.837Z,84.375
2018-07-05T13:10:29.242Z,78.75
2018-07-05T13:11:34.648Z,78.75
2018-07-05T13:12:40.100Z,84.375
2018-07-05T13:13:45.471Z,84.375
2018-07-05T13:14:50.919Z,78.75
2018-07-05T13:15:56.321Z,78.75
2018-07-05T13:17:01.754Z,78.75
2018-07-05T13:18:07.191Z,78.75
2018-07-05T13:19:12.568Z,78.75
2018-07-05T13:20:17.975Z,78.75
2018-07-05T13:21:23.389Z,78.75
2018-07-05T13:22:28.808Z,78.75
2018-07-05T13:23:34.211Z,78.75
2018-07-05T13:24:39.615Z,78.75
2018-07-05T13:25:45.021Z,78.75
2018-07-05T13:26:50.428Z,78.75
2018-07-05T13:27:55.840Z,78.75
2018-07-05T13:29:01.245Z,78.75
2018-07-05T13:30:06.649Z,78.75
2018-07-05T13:31:12.075Z,78.75
2018-07-05T13:32:17.527Z,78.75
2018-07-05T13:33:22.921Z,78.75
2018-07-05T13:34:28.325Z,78.75
2018-07-05T13:35:33.733Z,78.75
2018-07-05T13:36:39.141Z,78.75
2018-07-05T13:37:44.559Z,78.75
2018-07-05T13:38:49.968Z,78.75
2018-07-05T13:39:56.463Z,78.75
2018-07-05T13:41:01.777Z,78.75
2018-07-05T13:42:07.183Z,78.75
2018-07-05T13:43:12.613Z,78.75
2018-07-05T13:44:18.019Z,73.125
2018-07-05T13:45:23.486Z,73.125
2018-07-05T13:46:28.830Z,73.125
2018-07-05T13:47:34.236Z,73.125
2018-07-05T13:48:39.648Z,73.125
2018-07-05T13:49:45.054Z,73.125
2018-07-05T13:50:50.462Z,73.125
2018-07-05T13:51:55.863Z,73.125
2018-07-05T13:53:01.289Z,73.125
2018-07-05T13:54:06.700Z,73.125
2018-07-05T13:55:12.114Z,73.125
2018-07-05T13:56:17.518Z,73.125
2018-07-05T13:57:22.924Z,73.125
2018-07-05T13:58:28.346Z,73.125
2018-07-05T13:59:33.754Z,73.125
2018-07-05T14:00:39.161Z,73.125
2018-07-05T14:01:44.564Z,73.125
2018-07-05T14:02:49.966Z,73.125
2018-07-05T14:03:55.383Z,73.125
2018-07-05T14:05:01.781Z,73.125
2018-07-05T14:06:07.188Z,73.125
2018-07-05T14:07:12.591Z,73.125
2018-07-05T14:08:18.015Z,73.125
2018-07-05T14:09:23.412Z,73.125
2018-07-05T14:10:28.815Z,73.125
2018-07-05T14:11:34.228Z,73.125
2018-07-05T14:12:39.635Z,73.125
2018-07-05T14:13:46.039Z,73.125
2018-07-05T14:14:51.444Z,73.125
2018-07-05T14:15:56.858Z,73.125
2018-07-05T14:17:02.267Z,73.125
2018-07-05T14:18:07.684Z,73.125
2018-07-05T14:19:13.085Z,73.125
2018-07-05T14:20:18.490Z,73.125
2018-07-05T14:21:23.901Z,73.125
2018-07-05T14:22:29.309Z,73.125
2018-07-05T14:23:34.725Z,78.75